createdAt,value
2023-04-25T00:07:02.246Z,100898.94
2023-04-25T00:17:03.876Z,100910.09
2023-04-25T00:27:14.506Z,100918.00
2023-04-25T00:37:26.634Z,100908.44
2023-04-25T00:48:04.068Z,100907.91
2023-04-25T00:58:26.403Z,100912.06
2023-04-25T01:08:34.687Z,100914.44
2023-04-25T01:18:42.202Z,100916.97
2023-04-25T01:28:47.486Z,100921.09
2023-04-25T01:49:15.581Z,100926.19
2023-04-25T01:59:24.650Z,100925.34
2023-04-25T02:09:25.988Z,100936.53
2023-04-25T02:19:31.391Z,100945.22
2023-04-25T02:29:35.493Z,100952.16
2023-04-25T02:49:52.017Z,100957.03
2023-04-25T02:59:54.409Z,100948.31
2023-04-25T03:09:58.706Z,100946.59
2023-04-25T03:20:08.827Z,100960.38
2023-04-25T03:50:57.953Z,100958.56
2023-04-25T04:01:02.748Z,100963.16
2023-04-25T04:11:11.968Z,100978.59
2023-04-25T04:21:18.864Z,100986.44
2023-04-25T04:31:20.377Z,100998.44
2023-04-25T04:41:21.700Z,100993.41
2023-04-25T04:51:22.958Z,101012.50
2023-04-25T05:01:24.357Z,101020.22
2023-04-25T05:11:25.737Z,101043.69
2023-04-25T05:21:27.312Z,101047.09
2023-04-25T05:31:28.598Z,101055.13
2023-04-25T05:41:29.889Z,101059.53
2023-04-25T05:51:32.640Z,101070.44
2023-04-25T06:01:36.043Z,101098.31
2023-04-25T06:11:37.485Z,101101.63
2023-04-25T06:21:38.847Z,101104.91
2023-04-25T06:41:56.647Z,101118.66
2023-04-25T07:02:55.851Z,101136.66
2023-04-25T07:33:52.616Z,101166.47
2023-04-25T07:54:32.710Z,101195.38
2023-04-25T08:04:34.258Z,101200.88
2023-04-25T08:14:42.801Z,101210.53
2023-04-25T08:24:50.673Z,101219.28
2023-04-25T08:45:12.854Z,101247.19
2023-04-25T08:55:16.499Z,101260.44
2023-04-25T09:05:25.887Z,101291.78
2023-04-25T09:15:31.667Z,101299.66
2023-04-25T09:25:42.428Z,101309.41
2023-04-25T09:35:51.538Z,101329.25
2023-04-25T09:46:04.728Z,101325.03
2023-04-25T09:56:08.648Z,101326.97
2023-04-25T10:06:15.323Z,101340.03
2023-04-25T10:37:01.382Z,101343.94
2023-04-25T10:47:07.355Z,101351.38
2023-04-25T10:57:13.252Z,101347.03
2023-04-25T11:07:25.757Z,101352.28
2023-04-25T11:17:37.324Z,101356.78
2023-04-25T11:27:38.688Z,101379.47
2023-04-25T11:37:39.980Z,101390.22
2023-04-25T11:47:41.321Z,101381.50
2023-04-25T11:57:42.629Z,101386.31
2023-04-25T12:07:43.935Z,101382.50
2023-04-25T12:17:45.376Z,101392.38
2023-04-25T12:27:48.468Z,101388.75
2023-04-25T12:37:56.418Z,101403.75
2023-04-25T12:48:04.500Z,101414.03
2023-04-25T12:58:16.687Z,101419.00
2023-04-25T13:08:25.771Z,101438.16
2023-04-25T13:18:30.554Z,101439.38
2023-04-25T13:28:38.419Z,101449.13
2023-04-25T13:38:46.693Z,101435.22
2023-04-25T13:48:57.761Z,101427.16
2023-04-25T13:59:03.491Z,101434.91
2023-04-25T14:09:11.420Z,101438.19
2023-04-25T14:19:22.094Z,101436.94
2023-04-25T14:29:27.533Z,101430.00
2023-04-25T14:39:35.484Z,101437.06
2023-04-25T14:49:43.440Z,101443.00
2023-04-25T14:59:54.798Z,101437.81
2023-04-25T15:10:03.460Z,101449.25
2023-04-25T15:20:08.479Z,101466.81
2023-04-25T15:30:17.590Z,101468.59
2023-04-25T15:40:27.627Z,101479.06
2023-04-25T15:50:29.381Z,101491.25
2023-04-25T16:00:43.016Z,101490.63
2023-04-25T16:10:53.282Z,101503.97
2023-04-25T16:20:58.480Z,101508.34
2023-04-25T16:31:06.644Z,101507.44
2023-04-25T16:41:11.044Z,101525.06
2023-04-25T16:51:18.586Z,101521.91
2023-04-25T17:01:22.007Z,101521.94
2023-04-25T17:11:23.483Z,101529.03
2023-04-25T17:21:26.954Z,101534.28
2023-04-25T17:31:34.654Z,101547.47
2023-04-25T17:41:45.516Z,101553.81
2023-04-25T17:51:50.624Z,101557.41
2023-04-25T18:01:58.531Z,101579.16
2023-04-25T18:12:06.528Z,101592.47
2023-04-25T18:22:14.560Z,101592.72
2023-04-25T18:32:23.645Z,101600.63
2023-04-25T18:42:32.538Z,101608.03
2023-04-25T18:52:35.538Z,101613.28
2023-04-25T19:02:37.239Z,101625.53
2023-04-25T19:12:38.687Z,101636.97
2023-04-25T19:22:40.021Z,101638.78
2023-04-25T19:32:41.357Z,101651.94
2023-04-25T19:42:42.643Z,101654.56
2023-04-25T19:52:43.953Z,101667.66
2023-04-25T20:02:45.509Z,101674.72
2023-04-25T20:12:46.909Z,101673.88
2023-04-25T20:22:48.210Z,101674.88
2023-04-25T20:32:49.615Z,101685.38
2023-04-25T20:42:51.476Z,101689.06
2023-04-25T20:52:52.826Z,101685.59
2023-04-25T21:02:54.196Z,101683.94
2023-04-25T21:12:55.622Z,101686.63
2023-04-25T21:22:57.019Z,101691.91
2023-04-25T21:33:07.678Z,101704.09
2023-04-25T21:43:09.048Z,101704.19
2023-04-25T21:53:12.677Z,101706.81
2023-04-25T22:03:14.111Z,101712.13
2023-04-25T22:13:15.481Z,101723.50
2023-04-25T22:23:16.745Z,101713.91
2023-04-25T22:33:18.056Z,101713.94
2023-04-25T22:43:19.914Z,101722.69
2023-04-25T22:53:21.224Z,101729.69
2023-04-25T23:03:24.492Z,101738.44
2023-04-25T23:13:25.818Z,101736.66
2023-04-25T23:23:27.107Z,101737.72
2023-04-25T23:33:31.219Z,101733.38
2023-04-25T23:43:32.592Z,101729.09
2023-04-25T23:53:33.851Z,101727.19
